Time;durP1;ratioP1;P1;durP2;ratioP2;P2;SDS_P1;SDS_P2;PMS_P1;PMS_P2;Temp;Humidity;BMP_temperature;BMP_pressure;BME280_temperature;BME280_humidity;BME280_pressure;Samples;Min_cycle;Max_cycle;Signal;HPM_P1;HPM_P2
2024/01/25 00:00:15;;;;;;;37.20;10.32;;;;;;;6.82;100.00;102626.44;5042262;28;20033;-72
2024/01/25 00:02:41;;;;;;;34.97;8.90;;;;;;;6.83;100.00;102649.34;5040023;28;20036;-73
2024/01/25 00:05:07;;;;;;;33.92;8.93;;;;;;;6.80;100.00;102646.72;5040312;28;20479;-72
2024/01/25 00:07:32;;;;;;;39.92;9.50;;;;;;;6.72;100.00;102622.94;5037245;28;20365;-72
2024/01/25 00:09:57;;;;;;;39.60;9.63;;;;;;;6.77;100.00;102625.56;5036635;28;20033;-72
2024/01/25 00:12:23;;;;;;;32.85;8.93;;;;;;;6.71;100.00;102625.63;5037716;28;20569;-71
2024/01/25 00:14:48;;;;;;;35.38;9.93;;;;;;;6.63;100.00;102641.53;5037291;28;20538;-72
2024/01/25 00:17:13;;;;;;;42.20;9.85;;;;;;;6.58;100.00;102647.75;5041764;28;20057;-73
2024/01/25 00:19:40;;;;;;;34.17;8.85;;;;;;;6.40;100.00;102633.72;5038599;28;20048;-72
2024/01/25 00:22:06;;;;;;;40.20;9.95;;;;;;;6.47;100.00;102637.22;5038713;28;20048;-71
2024/01/25 00:24:33;;;;;;;40.72;9.70;;;;;;;6.41;100.00;102634.59;5042572;28;20032;-73
2024/01/25 00:26:58;;;;;;;39.65;10.93;;;;;;;6.33;100.00;102645.22;5042628;28;20130;-73
2024/01/25 00:29:24;;;;;;;35.70;9.85;;;;;;;6.34;100.00;102657.53;5041080;28;20278;-73
2024/01/25 00:31:49;;;;;;;34.65;9.48;;;;;;;6.32;100.00;102648.75;5041806;28;20181;-74
2024/01/25 00:34:15;;;;;;;34.28;10.05;;;;;;;6.31;100.00;102647.00;5038233;28;20029;-74
2024/01/25 00:36:43;;;;;;;36.72;8.70;;;;;;;6.26;100.00;102638.19;5037961;28;20024;-73
2024/01/25 00:39:09;;;;;;;34.80;9.18;;;;;;;6.16;100.00;102647.06;5042985;28;20111;-73
2024/01/25 00:41:35;;;;;;;33.70;8.63;;;;;;;6.16;100.00;102658.50;5042866;28;20552;-73
2024/01/25 00:44:01;;;;;;;37.65;10.07;;;;;;;6.07;100.00;102647.09;5037017;28;20032;-73
2024/01/25 00:46:26;;;;;;;37.03;9.30;;;;;;;6.07;100.00;102647.09;5034845;28;20120;-73
2024/01/25 00:48:55;;;;;;;39.58;10.18;;;;;;;6.00;100.00;102651.50;5043462;28;20475;-73
2024/01/25 00:51:25;;;;;;;35.88;9.68;;;;;;;5.93;100.00;102652.41;5032006;28;20147;-73
2024/01/25 00:53:51;;;;;;;38.75;9.98;;;;;;;5.84;100.00;102655.03;5034709;28;20049;-73
2024/01/25 00:56:16;;;;;;;34.78;9.50;;;;;;;5.82;100.00;102654.19;5035181;28;20048;-74
2024/01/25 00:58:42;;;;;;;39.35;10.68;;;;;;;5.78;100.00;102660.34;5039839;28;20396;-73
2024/01/25 01:01:09;;;;;;;36.47;9.73;;;;;;;5.74;100.00;102660.34;5037476;28;20126;-73
2024/01/25 01:03:35;;;;;;;44.30;10.15;;;;;;;5.72;100.00;102650.66;5042063;28;20040;-73
2024/01/25 01:06:01;;;;;;;43.45;10.20;;;;;;;5.67;100.00;102636.59;5032891;28;20459;-73
2024/01/25 01:08:26;;;;;;;37.00;9.82;;;;;;;5.67;100.00;102648.03;5035003;28;20524;-73
2024/01/25 01:10:55;;;;;;;42.90;9.95;;;;;;;5.65;100.00;102664.78;5040694;28;20043;-74
2024/01/25 01:13:20;;;;;;;41.90;10.35;;;;;;;5.60;100.00;102656.88;5039603;28;20092;-73
2024/01/25 01:15:46;;;;;;;42.03;10.48;;;;;;;5.60;100.00;102658.59;5033773;28;20045;-73
2024/01/25 01:18:11;;;;;;;35.42;9.20;;;;;;;5.53;100.00;102654.22;5042185;28;20104;-73
2024/01/25 01:20:36;;;;;;;40.90;9.95;;;;;;;5.56;100.00;102663.03;5041487;28;20029;-73
2024/01/25 01:23:02;;;;;;;42.97;10.05;;;;;;;5.59;100.00;102670.94;5040252;28;20115;-74
2024/01/25 01:25:27;;;;;;;49.78;11.30;;;;;;;5.60;100.00;102663.88;5035353;28;20086;-74
2024/01/25 01:27:53;;;;;;;45.25;10.38;;;;;;;5.50;100.00;102666.53;5034401;28;20403;-73
2024/01/25 01:30:19;;;;;;;51.13;10.40;;;;;;;5.43;100.00;102662.16;5037941;28;20037;-73
2024/01/25 01:32:44;;;;;;;40.60;10.13;;;;;;;5.47;100.00;102670.94;5038236;28;20029;-73
2024/01/25 01:35:09;;;;;;;45.13;10.85;;;;;;;5.38;100.00;102649.81;5036417;28;20033;-73
2024/01/25 01:37:35;;;;;;;47.08;10.93;;;;;;;5.43;100.00;102664.81;5033728;28;20039;-73
2024/01/25 01:40:00;;;;;;;42.13;9.73;;;;;;;5.38;100.00;102671.81;5038073;28;20080;-74
2024/01/25 01:42:27;;;;;;;37.88;10.32;;;;;;;5.30;100.00;102664.78;5033821;28;20020;-73
2024/01/25 01:44:55;;;;;;;45.83;9.80;;;;;;;5.26;100.00;102663.91;5037325;28;20043;-72
2024/01/25 01:47:21;;;;;;;43.15;9.82;;;;;;;5.25;100.00;102659.50;5046908;28;20029;-72
2024/01/25 01:49:47;;;;;;;36.30;10.10;;;;;;;5.23;100.00;102671.84;5046420;28;20040;-72
2024/01/25 01:52:12;;;;;;;42.10;9.52;;;;;;;5.22;100.00;102670.06;5035692;28;20366;-74
2024/01/25 01:54:38;;;;;;;46.53;11.70;;;;;;;5.22;100.00;102676.25;5040186;28;20503;-73
2024/01/25 01:57:04;;;;;;;46.42;10.82;;;;;;;5.22;100.00;102675.34;5045660;28;20031;-73
2024/01/25 01:59:30;;;;;;;42.15;10.32;;;;;;;5.20;100.00;102699.09;5041487;28;20359;-73
2024/01/25 02:01:55;;;;;;;45.03;10.60;;;;;;;5.18;100.00;102697.31;5050302;28;20171;-74
2024/01/25 02:04:21;;;;;;;40.70;10.75;;;;;;;5.11;100.00;102682.38;5039025;28;20534;-74
2024/01/25 02:06:46;;;;;;;42.35;10.52;;;;;;;5.20;100.00;102690.31;5039738;28;20033;-72
2024/01/25 02:09:12;;;;;;;53.15;11.55;;;;;;;5.19;100.00;102707.03;5035820;28;20264;-72
2024/01/25 02:11:38;;;;;;;43.63;10.18;;;;;;;5.19;100.00;102707.03;5040621;28;20505;-73
2024/01/25 02:14:03;;;;;;;43.80;9.68;;;;;;;5.18;100.00;102710.53;5044865;28;20052;-73
2024/01/25 02:16:28;;;;;;;44.05;10.63;;;;;;;5.09;100.00;102714.03;5044248;28;20053;-73
2024/01/25 02:18:57;;;;;;;40.72;10.45;;;;;;;5.10;100.00;102725.47;5041789;28;20036;-73
2024/01/25 02:21:25;;;;;;;41.25;10.10;;;;;;;5.04;100.00;102717.56;5036863;28;20136;-73
2024/01/25 02:23:51;;;;;;;47.78;11.30;;;;;;;4.98;100.00;102724.59;5035162;28;20577;-73
2024/01/25 02:26:16;;;;;;;46.00;10.27;;;;;;;4.92;100.00;102727.19;5042601;28;20336;-73
2024/01/25 02:28:41;;;;;;;46.05;11.10;;;;;;;4.84;100.00;102730.69;5039629;28;20025;-73
2024/01/25 02:31:07;;;;;;;39.60;10.68;;;;;;;4.87;100.00;102734.22;5040967;28;20050;-74
2024/01/25 02:33:32;;;;;;;40.40;10.75;;;;;;;4.83;100.00;102745.66;5042553;28;20033;-74
2024/01/25 02:35:57;;;;;;;42.35;10.70;;;;;;;4.83;100.00;102745.66;5036417;28;20064;-73
2024/01/25 02:38:25;;;;;;;43.33;10.88;;;;;;;4.79;100.00;102743.00;5041104;28;20494;-74
2024/01/25 02:40:53;;;;;;;42.55;11.32;;;;;;;4.75;100.00;102752.66;5040311;28;20024;-74
2024/01/25 02:43:19;;;;;;;47.92;11.02;;;;;;;4.72;100.00;102747.34;5044623;28;20044;-73
2024/01/25 02:45:44;;;;;;;46.97;11.02;;;;;;;4.64;100.00;102722.69;5041852;28;20380;-74
2024/01/25 02:48:10;;;;;;;43.63;11.02;;;;;;;4.64;100.00;102733.25;5041063;28;20517;-73
2024/01/25 02:50:35;;;;;;;43.35;11.05;;;;;;;4.67;100.00;102738.53;5044120;28;20061;-72
2024/01/25 02:53:00;;;;;;;49.00;11.60;;;;;;;4.70;100.00;102730.66;5043631;28;20028;-72
2024/01/25 02:55:26;;;;;;;44.22;10.57;;;;;;;4.69;100.00;102731.53;5041793;28;20049;-72
2024/01/25 02:57:51;;;;;;;40.67;10.43;;;;;;;4.70;100.00;102725.38;5037653;28;20032;-72
2024/01/25 03:00:17;;;;;;;38.47;10.05;;;;;;;4.67;100.00;102731.50;5040361;28;20094;-73
2024/01/25 03:02:42;;;;;;;42.80;9.77;;;;;;;4.67;100.00;102723.59;5041250;28;20049;-71
2024/01/25 03:05:07;;;;;;;50.25;11.50;;;;;;;4.66;100.00;102735.03;5045123;28;20135;-73
2024/01/25 03:07:33;;;;;;;40.15;10.30;;;;;;;4.65;100.00;102733.28;5042933;28;21030;-72
2024/01/25 03:09:58;;;;;;;41.70;10.55;;;;;;;4.59;100.00;102732.34;5042699;28;20028;-72
2024/01/25 03:12:26;;;;;;;41.72;10.02;;;;;;;4.53;100.00;102720.03;5041080;28;20036;-73
2024/01/25 03:14:51;;;;;;;39.13;10.30;;;;;;;4.50;100.00;102731.44;5034531;28;20029;-73
2024/01/25 03:17:17;;;;;;;41.50;9.93;;;;;;;4.49;100.00;102734.97;5044330;28;20059;-73
2024/01/25 03:19:42;;;;;;;44.17;9.40;;;;;;;4.46;100.00;102726.16;5045319;28;20036;-73
2024/01/25 03:22:08;;;;;;;37.40;9.52;;;;;;;4.41;100.00;102723.50;5038631;28;20111;-74
2024/01/25 03:24:36;;;;;;;41.88;8.90;;;;;;;4.36;100.00;102716.44;5039880;28;20033;-73
2024/01/25 03:27:02;;;;;;;39.55;10.38;;;;;;;4.39;100.00;102730.53;5039671;28;20033;-73
2024/01/25 03:29:27;;;;;;;40.45;9.43;;;;;;;4.33;100.00;102733.13;5042919;28;20549;-73
2024/01/25 03:31:54;;;;;;;38.40;9.38;;;;;;;4.29;100.00;102733.09;5041939;28;20025;-73
2024/01/25 03:34:19;;;;;;;38.88;9.40;;;;;;;4.24;100.00;102739.22;5040413;28;20059;-74
2024/01/25 03:36:44;;;;;;;33.88;9.25;;;;;;;4.19;100.00;102745.34;5041652;28;20029;-74
2024/01/25 03:39:10;;;;;;;44.00;9.57;;;;;;;4.14;100.00;102740.06;5035044;28;20235;-73
2024/01/25 03:41:35;;;;;;;44.67;9.90;;;;;;;4.12;100.00;102744.44;5022223;28;20021;-73
2024/01/25 03:44:00;;;;;;;47.22;10.13;;;;;;;4.09;100.00;102740.88;5039353;28;20021;-73
2024/01/25 03:46:26;;;;;;;44.95;9.68;;;;;;;3.98;100.00;102733.81;5041801;28;20103;-73
2024/01/25 03:48:51;;;;;;;48.35;10.50;;;;;;;3.91;100.00;102731.13;5039927;28;20029;-73
2024/01/25 03:51:16;;;;;;;44.17;10.52;;;;;;;3.92;100.00;102735.50;5038175;28;20037;-73
2024/01/25 03:53:42;;;;;;;33.60;9.27;;;;;;;3.87;100.00;102745.13;5038535;28;20475;-73
2024/01/25 03:56:17;;;;;;;35.38;9.55;;;;;;;3.83;100.00;102740.72;5038116;28;20422;-72
2024/01/25 03:58:42;;;;;;;40.15;10.25;;;;;;;3.83;100.00;102736.31;5039724;28;20087;-73
2024/01/25 04:01:07;;;;;;;42.83;11.00;;;;;;;3.78;100.00;102732.78;5037988;28;20482;-73
2024/01/25 04:03:33;;;;;;;39.00;10.68;;;;;;;3.80;100.00;102736.28;5040250;28;20407;-73
2024/01/25 04:05:58;;;;;;;42.75;10.43;;;;;;;3.70;100.00;102739.75;5033415;28;20032;-73
2024/01/25 04:08:24;;;;;;;38.38;10.15;;;;;;;3.69;100.00;102745.88;5038715;28;20063;-73
2024/01/25 04:10:49;;;;;;;41.13;10.57;;;;;;;3.69;100.00;102738.88;5042064;28;20083;-73
2024/01/25 04:13:14;;;;;;;35.47;9.13;;;;;;;3.67;100.00;102755.50;5041283;28;20055;-72
2024/01/25 04:15:40;;;;;;;42.38;10.07;;;;;;;3.61;100.00;102755.47;5040167;28;20121;-73
2024/01/25 04:18:05;;;;;;;43.67;10.50;;;;;;;3.58;100.00;102765.97;5035429;28;20035;-73
2024/01/25 04:20:31;;;;;;;46.17;10.02;;;;;;;3.50;100.00;102753.59;5039205;28;20116;-73
2024/01/25 04:22:57;;;;;;;44.33;10.38;;;;;;;3.55;100.00;102761.53;5038874;28;20072;-73
2024/01/25 04:25:22;;;;;;;47.47;10.10;;;;;;;3.50;100.00;102758.88;5033840;28;20021;-74
2024/01/25 04:27:47;;;;;;;35.70;11.20;;;;;;;3.50;100.00;102756.25;5038512;28;20095;-73
2024/01/25 04:30:13;;;;;;;40.92;9.93;;;;;;;3.41;100.00;102743.00;5039856;28;20459;-73
2024/01/25 04:32:40;;;;;;;38.38;10.57;;;;;;;3.44;100.00;102750.94;5034187;28;20041;-71
2024/01/25 04:35:05;;;;;;;41.47;10.70;;;;;;;3.38;100.00;102739.47;5038939;28;20056;-72
2024/01/25 04:37:31;;;;;;;49.50;11.88;;;;;;;3.35;100.00;102732.44;5039696;28;20480;-72
2024/01/25 04:39:56;;;;;;;45.60;11.43;;;;;;;3.32;100.00;102724.50;5031273;28;20029;-72
2024/01/25 04:42:21;;;;;;;46.22;10.38;;;;;;;3.27;100.00;102723.59;5038173;28;20454;-72
2024/01/25 04:44:47;;;;;;;38.30;10.57;;;;;;;3.34;100.00;102753.47;5036523;28;20028;-73
2024/01/25 04:47:12;;;;;;;45.20;11.00;;;;;;;3.30;100.00;102746.41;5039387;28;20518;-73
2024/01/25 04:49:38;;;;;;;42.20;10.98;;;;;;;3.17;100.00;102727.84;5039872;28;20444;-73
2024/01/25 04:52:03;;;;;;;46.30;11.50;;;;;;;3.29;100.00;102744.63;5033588;28;20029;-72
2024/01/25 04:54:29;;;;;;;45.80;10.68;;;;;;;3.30;100.00;102746.41;5033273;28;20060;-73
2024/01/25 04:56:54;;;;;;;49.97;10.82;;;;;;;3.24;100.00;102734.06;5040979;28;20023;-73
2024/01/25 04:59:20;;;;;;;49.10;11.63;;;;;;;3.18;100.00;102737.53;5040564;28;20163;-73
2024/01/25 05:01:45;;;;;;;52.08;11.23;;;;;;;3.22;100.00;102741.97;5035500;28;20063;-73
2024/01/25 05:04:11;;;;;;;42.10;10.95;;;;;;;3.24;100.00;102742.84;5037117;28;20127;-73
2024/01/25 05:06:36;;;;;;;44.58;11.07;;;;;;;3.22;100.00;102725.28;5037800;28;20029;-73
2024/01/25 05:09:02;;;;;;;36.85;10.73;;;;;;;3.25;100.00;102734.06;5038259;28;20040;-73
2024/01/25 05:11:28;;;;;;;44.00;10.73;;;;;;;3.27;100.00;102733.22;5038384;28;20033;-73
2024/01/25 05:13:53;;;;;;;49.90;11.73;;;;;;;3.14;100.00;102713.81;5040888;28;20058;-73
2024/01/25 05:16:18;;;;;;;40.58;10.65;;;;;;;3.19;100.00;102735.78;5036924;28;20074;-73
2024/01/25 05:18:44;;;;;;;45.65;11.65;;;;;;;3.12;100.00;102728.69;5042135;28;20025;-73
2024/01/25 05:21:09;;;;;;;46.08;11.82;;;;;;;3.03;100.00;102724.22;5038788;28;20021;-73
2024/01/25 05:23:35;;;;;;;42.47;11.23;;;;;;;2.99;100.00;102718.03;5035019;28;20122;-73
2024/01/25 05:26:01;;;;;;;46.33;11.80;;;;;;;3.04;100.00;102741.75;5032722;28;20252;-73
2024/01/25 05:28:27;;;;;;;45.30;10.98;;;;;;;2.94;100.00;102730.25;5037336;28;20025;-73
2024/01/25 05:30:52;;;;;;;47.17;11.40;;;;;;;2.99;100.00;102738.19;5034408;28;20299;-73
2024/01/25 05:33:18;;;;;;;46.58;11.00;;;;;;;3.00;100.00;102732.94;5041393;28;20043;-73
2024/01/25 05:35:43;;;;;;;43.05;11.45;;;;;;;3.00;100.00;102727.69;5040307;28;20044;-72
2024/01/25 05:38:08;;;;;;;45.50;11.52;;;;;;;2.98;100.00;102726.81;5035130;28;20068;-73
2024/01/25 05:40:34;;;;;;;51.08;11.40;;;;;;;2.99;100.00;102744.34;5037674;28;20033;-73
2024/01/25 05:42:59;;;;;;;52.53;12.80;;;;;;;2.93;100.00;102722.38;5040929;28;20033;-73
2024/01/25 05:45:26;;;;;;;44.45;10.85;;;;;;;2.97;100.00;102738.19;5041983;28;20053;-74
2024/01/25 05:47:51;;;;;;;47.47;11.15;;;;;;;2.99;100.00;102744.34;5041488;28;20029;-72
2024/01/25 05:50:17;;;;;;;47.53;11.95;;;;;;;2.97;100.00;102751.34;5035541;28;20026;-72
2024/01/25 05:52:42;;;;;;;51.38;12.77;;;;;;;2.94;100.00;102751.31;5038700;28;20029;-72
2024/01/25 05:55:08;;;;;;;50.70;12.00;;;;;;;2.93;100.00;102754.81;5040781;28;20087;-72
2024/01/25 05:57:37;;;;;;;44.20;12.30;;;;;;;2.99;100.00;102767.13;5040175;28;20018;-72
2024/01/25 06:00:05;;;;;;;47.90;12.63;;;;;;;2.91;100.00;102756.53;5039537;28;20351;-72
2024/01/25 06:02:31;;;;;;;47.65;11.90;;;;;;;2.93;100.00;102761.81;5033593;28;20059;-74
2024/01/25 06:04:58;;;;;;;38.83;12.40;;;;;;;2.86;100.00;102757.34;5055676;28;20033;-73
2024/01/25 06:07:27;;;;;;;48.33;12.02;;;;;;;2.87;100.00;102756.47;5039427;28;20029;-73
2024/01/25 06:09:53;;;;;;;54.70;14.02;;;;;;;2.82;100.00;102745.03;5038672;28;20029;-73
2024/01/25 06:12:19;;;;;;;47.70;12.00;;;;;;;2.86;100.00;102752.97;5036307;28;20037;-73
2024/01/25 06:14:44;;;;;;;52.95;13.27;;;;;;;2.84;100.00;102752.03;5039534;28;20394;-72
2024/01/25 06:17:10;;;;;;;53.70;13.25;;;;;;;2.80;100.00;102749.38;5037970;28;20187;-74
2024/01/25 06:19:35;;;;;;;49.78;14.70;;;;;;;2.87;100.00;102752.09;5038903;28;20048;-72
2024/01/25 06:22:00;;;;;;;52.15;13.25;;;;;;;2.86;100.00;102752.09;5039301;28;20025;-72
2024/01/25 06:24:26;;;;;;;49.92;13.30;;;;;;;2.85;100.00;102756.47;5038493;28;20025;-73
2024/01/25 06:26:54;;;;;;;50.38;12.80;;;;;;;2.84;100.00;102769.59;5039418;28;20509;-72
2024/01/25 06:29:20;;;;;;;40.75;12.27;;;;;;;2.80;100.00;102763.44;5029439;28;20018;-72
2024/01/25 06:31:45;;;;;;;46.60;12.02;;;;;;;2.79;100.00;102759.00;5037815;28;20060;-73
2024/01/25 06:34:11;;;;;;;54.05;13.00;;;;;;;2.74;100.00;102764.22;5029497;28;20087;-73
2024/01/25 06:36:37;;;;;;;55.97;13.60;;;;;;;2.77;100.00;102762.50;5036768;28;20029;-73
2024/01/25 06:39:04;;;;;;;56.92;13.70;;;;;;;2.82;100.00;102777.47;5041367;28;20059;-73
2024/01/25 06:41:29;;;;;;;50.92;12.70;;;;;;;2.77;100.00;102789.69;5043412;28;20086;-73
2024/01/25 06:43:55;;;;;;;47.17;13.70;;;;;;;2.80;100.00;102779.22;5044405;28;20025;-73
2024/01/25 06:46:20;;;;;;;56.88;13.73;;;;;;;2.76;100.00;102780.03;5043159;28;20083;-72
2024/01/25 06:48:46;;;;;;;50.05;13.52;;;;;;;2.75;100.00;102776.50;5037245;28;20356;-73
2024/01/25 06:51:11;;;;;;;54.63;13.55;;;;;;;2.69;100.00;102770.28;5041668;28;20035;-74
2024/01/25 06:53:37;;;;;;;57.13;15.02;;;;;;;2.65;100.00;102773.75;5039887;28;20029;-73
2024/01/25 06:56:02;;;;;;;55.38;14.95;;;;;;;2.66;100.00;102778.13;5041706;28;20055;-73
2024/01/25 06:58:28;;;;;;;48.58;14.38;;;;;;;2.68;100.00;102785.19;5038123;28;20083;-73
2024/01/25 07:00:53;;;;;;;48.72;13.35;;;;;;;2.51;100.00;102768.31;5037382;28;20032;-73
2024/01/25 07:03:19;;;;;;;54.28;15.05;;;;;;;2.58;100.00;102775.41;5028468;28;20560;-73
2024/01/25 07:05:44;;;;;;;47.75;13.32;;;;;;;2.58;100.00;102782.41;5044563;28;20060;-73
2024/01/25 07:08:13;;;;;;;54.25;13.95;;;;;;;2.56;100.00;102778.91;5036568;28;20036;-73
2024/01/25 07:10:39;;;;;;;52.05;13.70;;;;;;;2.52;100.00;102782.34;5044201;28;20044;-73
2024/01/25 07:13:04;;;;;;;55.55;14.05;;;;;;;2.45;100.00;102763.84;5039148;28;20074;-74
2024/01/25 07:15:30;;;;;;;57.63;15.88;;;;;;;2.54;100.00;102773.59;5043821;28;20056;-72
2024/01/25 07:17:55;;;;;;;58.03;16.52;;;;;;;2.54;100.00;102775.34;5038156;28;20384;-74
2024/01/25 07:20:20;;;;;;;56.90;16.08;;;;;;;2.54;100.00;102776.22;5039781;28;20025;-72
2024/01/25 07:22:46;;;;;;;49.72;15.00;;;;;;;2.58;100.00;102777.16;5041712;28;20210;-73
2024/01/25 07:25:11;;;;;;;56.13;16.33;;;;;;;2.50;100.00;102772.66;5038241;28;20535;-73
2024/01/25 07:27:36;;;;;;;57.95;16.02;;;;;;;2.55;100.00;102782.34;5036395;28;20103;-73
2024/01/25 07:30:02;;;;;;;48.63;14.93;;;;;;;2.55;100.00;102779.72;5041687;28;20012;-74
2024/01/25 07:32:28;;;;;;;43.97;13.65;;;;;;;2.52;100.00;102770.06;5037677;28;20484;-73
2024/01/25 07:34:54;;;;;;;61.38;15.70;;;;;;;2.57;100.00;102786.78;5042446;28;20090;-74
2024/01/25 07:37:19;;;;;;;51.60;15.25;;;;;;;2.60;100.00;102785.97;5037117;28;20273;-72
2024/01/25 07:39:45;;;;;;;59.13;15.82;;;;;;;2.58;100.00;102791.19;5039781;28;20028;-73
2024/01/25 07:42:12;;;;;;;58.15;14.57;;;;;;;2.65;100.00;102803.53;5036040;28;20099;-73
2024/01/25 07:44:38;;;;;;;62.85;15.50;;;;;;;2.70;100.00;102793.09;5040178;28;20021;-73
2024/01/25 07:47:03;;;;;;;59.10;15.43;;;;;;;2.74;100.00;102789.63;5036596;28;20424;-73
2024/01/25 07:49:29;;;;;;;55.67;14.95;;;;;;;2.79;100.00;102787.94;5039336;28;20395;-72
2024/01/25 07:51:57;;;;;;;53.03;16.83;;;;;;;2.82;100.00;102790.63;5042001;28;20467;-72
2024/01/25 07:54:22;;;;;;;59.55;16.00;;;;;;;2.89;100.00;102795.09;5039381;28;20360;-73
2024/01/25 07:56:48;;;;;;;57.55;15.40;;;;;;;2.90;100.00;102791.59;5037584;28;20028;-73
2024/01/25 07:59:13;;;;;;;61.92;16.40;;;;;;;3.00;100.00;102801.34;5036549;28;20032;-74
2024/01/25 08:01:39;;;;;;;48.28;16.55;;;;;;;3.04;100.00;102798.75;5039449;28;20518;-72
2024/01/25 08:04:04;;;;;;;51.45;15.55;;;;;;;3.05;100.00;102796.13;5043037;28;20025;-73
2024/01/25 08:06:30;;;;;;;52.38;15.15;;;;;;;2.96;100.00;102781.13;5043184;28;20035;-73
2024/01/25 08:08:55;;;;;;;58.97;17.33;;;;;;;3.09;100.00;102802.31;5039643;28;20550;-72
2024/01/25 08:11:21;;;;;;;57.95;16.90;;;;;;;3.10;100.00;102807.63;5037329;28;20029;-73
2024/01/25 08:13:47;;;;;;;52.65;15.88;;;;;;;3.12;100.00;102807.63;5040880;28;20504;-75
2024/01/25 08:16:13;;;;;;;61.10;17.67;;;;;;;3.15;100.00;102815.56;5034387;28;20028;-72
2024/01/25 08:18:39;;;;;;;55.45;17.42;;;;;;;3.13;100.00;102809.38;5034935;28;20099;-72
2024/01/25 08:21:05;;;;;;;53.10;16.70;;;;;;;3.11;100.00;102797.97;5037357;28;20677;-72
2024/01/25 08:23:30;;;;;;;58.05;18.40;;;;;;;3.17;100.00;102803.28;5038342;28;20581;-72
2024/01/25 08:25:56;;;;;;;50.58;17.20;;;;;;;3.22;100.00;102826.19;5037258;28;20035;-72
2024/01/25 08:28:21;;;;;;;52.08;18.25;;;;;;;3.27;100.00;102818.31;5038129;28;20031;-73
2024/01/25 08:30:47;;;;;;;49.03;16.85;;;;;;;3.31;100.00;102820.13;5035771;28;20495;-72
2024/01/25 08:33:13;;;;;;;62.25;19.60;;;;;;;3.35;100.00;102805.25;5039965;28;20524;-72
2024/01/25 08:35:40;;;;;;;59.25;20.20;;;;;;;3.39;100.00;102784.25;5035687;28;20033;-72
2024/01/25 08:38:06;;;;;;;55.13;19.10;;;;;;;3.41;100.00;102753.53;5038616;28;20023;-72
2024/01/25 08:40:31;;;;;;;48.65;19.58;;;;;;;3.54;100.00;102769.44;5038366;28;20252;-72
2024/01/25 08:42:57;;;;;;;54.47;20.50;;;;;;;3.56;100.00;102770.34;5039025;28;20736;-72
2024/01/25 08:45:22;;;;;;;54.58;19.45;;;;;;;3.62;100.00;102780.94;5027954;28;20307;-72
2024/01/25 08:47:49;;;;;;;66.88;21.00;;;;;;;3.60;100.00;102780.06;5038597;28;20158;-72
2024/01/25 08:50:14;;;;;;;52.45;20.40;;;;;;;3.67;100.00;102798.53;5040304;28;20029;-72
2024/01/25 08:52:40;;;;;;;57.10;21.70;;;;;;;3.72;100.00;102814.38;5034541;28;20182;-72
2024/01/25 08:55:06;;;;;;;56.08;22.02;;;;;;;3.76;100.00;102818.78;5041566;28;20072;-71
2024/01/25 08:57:32;;;;;;;55.58;21.67;;;;;;;3.77;100.00;102809.16;5039065;28;20017;-71
2024/01/25 08:59:58;;;;;;;55.10;23.10;;;;;;;3.81;100.00;102818.88;5039756;28;20036;-72
2024/01/25 09:02:28;;;;;;;51.42;22.83;;;;;;;3.87;100.00;102808.34;5037153;28;20018;-72
2024/01/25 09:04:55;;;;;;;57.35;22.55;;;;;;;3.93;100.00;102804.03;5028686;28;20025;-72
2024/01/25 09:07:21;;;;;;;50.97;21.60;;;;;;;3.95;100.00;102804.03;5038570;28;20542;-72
2024/01/25 09:09:48;;;;;;;46.47;21.75;;;;;;;3.97;100.00;102802.28;5034912;28;20045;-72
2024/01/25 09:12:14;;;;;;;49.92;22.30;;;;;;;4.11;100.00;102815.59;5041127;28;20039;-72
2024/01/25 09:14:39;;;;;;;47.80;22.05;;;;;;;4.18;100.00;102817.38;5036033;28;20610;-72
2024/01/25 09:17:05;;;;;;;56.15;23.92;;;;;;;4.19;100.00;102811.25;5039432;28;20029;-72
2024/01/25 09:19:30;;;;;;;52.47;21.95;;;;;;;4.31;100.00;102807.81;5041810;28;20601;-70
2024/01/25 09:21:58;;;;;;;52.92;23.25;;;;;;;4.42;100.00;102819.28;5035629;28;20025;-73
2024/01/25 09:24:23;;;;;;;54.05;22.17;;;;;;;4.46;100.00;102807.91;5040878;28;20487;-73
2024/01/25 09:26:48;;;;;;;54.67;22.92;;;;;;;4.56;100.00;102812.38;5030557;28;20025;-72
2024/01/25 09:29:14;;;;;;;43.13;20.92;;;;;;;4.62;100.00;102815.03;5037784;28;20483;-72
2024/01/25 09:31:39;;;;;;;48.97;22.05;;;;;;;4.71;100.00;102814.19;5038674;28;20036;-72
2024/01/25 09:34:04;;;;;;;47.08;22.63;;;;;;;4.80;100.00;102806.31;5039673;28;20071;-73
2024/01/25 09:36:30;;;;;;;52.88;22.55;;;;;;;4.87;100.00;102800.19;5041673;28;20064;-73
2024/01/25 09:38:58;;;;;;;47.00;22.27;;;;;;;4.95;100.00;102816.06;5032589;28;20079;-73
2024/01/25 09:41:24;;;;;;;46.75;21.70;;;;;;;5.08;100.00;102809.94;5035834;28;20056;-73
2024/01/25 09:43:49;;;;;;;45.92;21.45;;;;;;;5.28;100.00;102820.56;5035150;28;20124;-73
2024/01/25 09:46:15;;;;;;;43.65;20.35;;;;;;;5.47;100.00;102805.63;5039930;28;20600;-73
2024/01/25 09:48:43;;;;;;;47.95;20.35;;;;;;;5.62;100.00;102802.16;5040551;28;20272;-73
2024/01/25 09:51:10;;;;;;;39.70;18.58;;;;;;;5.77;100.00;102812.72;5036553;28;20464;-73
2024/01/25 09:53:36;;;;;;;35.58;18.92;;;;;;;5.71;100.00;102802.16;5031233;28;20468;-73
2024/01/25 09:56:07;;;;;;;40.53;18.08;;;;;;;5.80;100.00;102820.63;5037070;28;20201;-73
2024/01/25 09:58:41;;;;;;;41.80;17.65;;;;;;;5.84;100.00;102819.75;5033321;28;20566;-74
2024/01/25 10:01:11;;;;;;;40.72;19.10;;;;;;;5.92;100.00;102822.44;5036922;28;20033;-74
2024/01/25 10:03:37;;;;;;;48.58;18.98;;;;;;;5.98;100.00;102822.47;5033865;28;20179;-73
2024/01/25 10:06:03;;;;;;;40.75;17.55;;;;;;;5.89;100.00;102801.25;5041751;28;20131;-74
2024/01/25 10:08:29;;;;;;;41.67;18.65;;;;;;;5.84;100.00;102808.31;5041012;28;20132;-73
2024/01/25 10:10:57;;;;;;;39.72;18.02;;;;;;;5.90;100.00;102803.91;5043466;28;20037;-74
2024/01/25 10:13:23;;;;;;;41.58;18.85;;;;;;;6.04;100.00;102792.50;5035485;28;20061;-74
2024/01/25 10:15:48;;;;;;;38.40;19.25;;;;;;;6.15;100.00;102798.66;5040840;28;20053;-74
2024/01/25 10:18:14;;;;;;;48.25;20.23;;;;;;;6.15;100.00;102782.78;5036592;28;20286;-74
2024/01/25 10:20:41;;;;;;;45.63;19.85;;;;;;;6.18;100.00;102781.00;5039753;28;20095;-73
2024/01/25 10:23:07;;;;;;;44.13;19.73;;;;;;;6.24;100.00;102788.06;5033547;28;20062;-74
2024/01/25 10:25:35;;;;;;;47.42;19.60;;;;;;;6.24;100.00;102788.06;5038050;28;20032;-74
2024/01/25 10:28:01;;;;;;;45.00;19.48;;;;;;;6.29;100.00;102785.41;5041535;28;20017;-74
2024/01/25 10:30:27;;;;;;;46.35;19.98;;;;;;;6.28;100.00;102781.88;5043751;28;20293;-74
2024/01/25 10:32:54;;;;;;;45.90;20.08;;;;;;;6.33;100.00;102784.50;5052608;28;20106;-74
2024/01/25 10:35:20;;;;;;;46.88;20.02;;;;;;;6.46;100.00;102784.47;5042665;28;20362;-74
2024/01/25 10:37:46;;;;;;;47.13;20.05;;;;;;;6.49;100.00;102765.06;5038570;28;20092;-74
2024/01/25 10:40:13;;;;;;;43.05;19.85;;;;;;;6.61;100.00;102764.16;5041282;28;20112;-74
2024/01/25 10:42:38;;;;;;;51.22;21.95;;;;;;;6.71;100.00;102750.00;5040068;28;20049;-74
2024/01/25 10:45:04;;;;;;;43.80;20.35;;;;;;;6.83;100.00;102762.28;5041113;28;20032;-74
2024/01/25 10:47:34;;;;;;;46.47;21.17;;;;;;;6.91;100.00;102761.38;5036230;28;20033;-74
2024/01/25 10:50:02;;;;;;;39.42;19.33;;;;;;;6.94;100.00;102753.41;5028139;28;20021;-74
2024/01/25 10:52:28;;;;;;;46.42;20.75;;;;;;;6.95;100.00;102744.56;5040231;28;20037;-74
2024/01/25 10:54:54;;;;;;;49.72;21.02;;;;;;;6.87;100.00;102734.91;5041570;28;20041;-74
2024/01/25 10:57:20;;;;;;;44.30;19.13;;;;;;;6.84;100.00;102725.22;5041200;28;20575;-74
2024/01/25 10:59:46;;;;;;;44.83;19.38;;;;;;;7.01;100.00;102730.41;5041032;28;20493;-74
2024/01/25 11:02:12;;;;;;;43.95;18.92;;;;;;;7.05;100.00;102739.22;5040695;28;20021;-74